createdAt,value
2019-01-18T00:01:35.506Z,21.50
2019-01-18T00:04:41.141Z,21.40
2019-01-18T00:07:46.819Z,21.40
2019-01-18T00:10:52.473Z,21.40
2019-01-18T00:13:58.100Z,21.40
2019-01-18T00:17:03.750Z,21.40
2019-01-18T00:20:09.810Z,21.30
2019-01-18T00:23:15.461Z,21.40
2019-01-18T00:26:21.142Z,21.40
2019-01-18T00:29:29.767Z,21.30
2019-01-18T00:32:34.093Z,21.30
2019-01-18T00:35:39.747Z,21.30
2019-01-18T00:38:45.389Z,21.30
2019-01-18T00:41:54.312Z,21.30
2019-01-18T00:44:59.998Z,21.20
2019-01-18T00:48:05.737Z,21.20
2019-01-18T00:51:13.086Z,21.20
2019-01-18T00:54:18.702Z,21.20
2019-01-18T00:57:25.786Z,21.20
2019-01-18T01:00:33.141Z,21.20
2019-01-18T01:03:38.837Z,21.10
2019-01-18T01:06:44.458Z,21.10
2019-01-18T01:09:50.101Z,21.00
2019-01-18T01:12:55.785Z,21.10
2019-01-18T01:16:01.515Z,21.00
2019-01-18T01:19:07.190Z,21.00
2019-01-18T01:22:12.850Z,21.00
2019-01-18T01:25:19.661Z,21.00
2019-01-18T01:28:25.281Z,20.90
2019-01-18T01:31:31.018Z,20.90
2019-01-18T01:34:38.361Z,20.90
2019-01-18T01:37:44.224Z,20.90
2019-01-18T01:40:49.907Z,20.80
2019-01-18T01:43:55.683Z,20.80
2019-01-18T01:47:01.345Z,20.80
2019-01-18T01:50:08.639Z,20.80
2019-01-18T01:53:16.134Z,20.70
2019-01-18T01:56:21.793Z,20.70
2019-01-18T01:59:27.438Z,20.70
2019-01-18T02:02:33.475Z,20.70
2019-01-18T02:05:39.150Z,20.70
2019-01-18T02:08:44.948Z,20.60
2019-01-18T02:11:51.429Z,20.60
2019-01-18T02:14:57.246Z,20.60
2019-01-18T02:18:02.868Z,20.50
2019-01-18T02:21:08.589Z,20.60
2019-01-18T02:24:14.200Z,20.60
2019-01-18T02:27:20.985Z,20.50
2019-01-18T02:30:28.652Z,20.50
2019-01-18T02:33:34.373Z,20.50
2019-01-18T02:36:40.461Z,20.50
2019-01-18T02:39:46.121Z,20.40
2019-01-18T02:42:51.780Z,20.40
2019-01-18T02:46:00.533Z,20.40
2019-01-18T02:49:07.270Z,20.40
2019-01-18T02:52:12.932Z,20.30
2019-01-18T02:55:18.785Z,20.30
2019-01-18T02:58:24.471Z,20.30
2019-01-18T03:01:30.126Z,20.30
2019-01-18T03:04:35.879Z,20.30
2019-01-18T03:07:41.494Z,20.30
2019-01-18T03:10:47.151Z,20.30
2019-01-18T03:13:52.825Z,20.20
2019-01-18T03:16:58.483Z,20.20
2019-01-18T03:20:04.243Z,20.20
2019-01-18T03:23:09.866Z,20.20
2019-01-18T03:26:15.510Z,20.20
2019-01-18T03:29:21.202Z,20.20
2019-01-18T03:32:26.854Z,20.10
2019-01-18T03:35:32.506Z,20.10
2019-01-18T03:38:38.154Z,20.10
2019-01-18T03:41:43.778Z,20.10
2019-01-18T03:44:49.466Z,20.10
2019-01-18T03:47:55.114Z,20.10
2019-01-18T03:51:00.770Z,20.00
2019-01-18T03:54:06.423Z,20.00
2019-01-18T03:57:12.041Z,20.00
2019-01-18T04:00:26.360Z,20.00
2019-01-18T04:03:30.007Z,20.00
2019-01-18T04:06:35.696Z,20.00
2019-01-18T04:09:41.337Z,19.90
2019-01-18T04:12:46.958Z,19.90
2019-01-18T04:15:52.615Z,19.90
2019-01-18T04:18:58.404Z,19.90
2019-01-18T04:22:04.150Z,19.90
2019-01-18T04:25:12.503Z,19.80
2019-01-18T04:28:18.102Z,19.90
2019-01-18T04:31:23.778Z,19.80
2019-01-18T04:34:29.329Z,19.80
2019-01-18T04:37:34.956Z,19.80
2019-01-18T04:40:40.605Z,19.80
2019-01-18T04:43:46.365Z,19.80
2019-01-18T04:46:52.038Z,19.80
2019-01-18T04:49:57.702Z,19.70
2019-01-18T04:53:03.347Z,19.70
2019-01-18T04:56:08.970Z,19.70
2019-01-18T04:59:14.646Z,19.70
2019-01-18T05:02:20.305Z,19.70
2019-01-18T05:05:26.526Z,19.60
2019-01-18T05:08:32.225Z,19.60
2019-01-18T05:11:38.239Z,19.60
2019-01-18T05:14:43.930Z,19.60
2019-01-18T05:17:49.675Z,19.60
2019-01-18T05:20:55.354Z,19.60
2019-01-18T05:24:01.039Z,19.60
2019-01-18T05:27:06.646Z,19.60
2019-01-18T05:30:15.653Z,19.60
2019-01-18T05:33:21.228Z,19.60
2019-01-18T05:36:26.921Z,19.60
2019-01-18T05:39:32.523Z,19.70
2019-01-18T05:42:38.210Z,19.70
2019-01-18T05:45:44.815Z,19.70
2019-01-18T05:48:50.428Z,19.80
2019-01-18T05:51:56.142Z,19.80
2019-01-18T05:55:01.881Z,19.90
2019-01-18T05:58:07.582Z,19.90
2019-01-18T06:01:14.574Z,20.00
2019-01-18T06:04:20.221Z,20.00
2019-01-18T06:07:25.911Z,20.00
2019-01-18T06:10:31.526Z,20.10
2019-01-18T06:13:37.507Z,20.10
2019-01-18T06:16:43.226Z,20.20
2019-01-18T06:19:49.030Z,20.20
2019-01-18T06:22:54.650Z,20.20
2019-01-18T06:26:00.174Z,20.30
2019-01-18T06:29:06.153Z,20.30
2019-01-18T06:32:11.811Z,20.40
2019-01-18T06:35:17.970Z,20.40
2019-01-18T06:38:23.633Z,20.40
2019-01-18T06:41:35.506Z,20.40
2019-01-18T06:44:41.182Z,20.40
2019-01-18T06:47:46.831Z,20.40
2019-01-18T06:50:53.486Z,20.40
2019-01-18T06:53:59.126Z,20.40
2019-01-18T06:57:04.909Z,20.40
2019-01-18T07:00:17.022Z,20.40
2019-01-18T07:03:22.778Z,20.50
2019-01-18T07:06:28.430Z,20.50
2019-01-18T07:09:34.181Z,20.60
2019-01-18T07:12:39.933Z,20.70
2019-01-18T07:15:45.615Z,20.80
2019-01-18T07:18:51.264Z,20.80
2019-01-18T07:21:57.050Z,20.80
2019-01-18T07:25:02.801Z,20.80
2019-01-18T07:28:08.454Z,20.70
2019-01-18T07:31:15.184Z,20.70
2019-01-18T07:34:20.990Z,20.60
2019-01-18T07:37:26.638Z,20.60
2019-01-18T07:40:32.295Z,20.60
2019-01-18T07:43:37.926Z,20.60
2019-01-18T07:46:43.598Z,20.60
2019-01-18T07:49:49.247Z,20.60
2019-01-18T07:52:55.621Z,20.60
2019-01-18T07:56:01.246Z,20.60
2019-01-18T07:59:06.922Z,20.60
2019-01-18T08:02:12.578Z,20.50
2019-01-18T08:05:18.510Z,20.60
2019-01-18T08:08:24.267Z,20.60
2019-01-18T08:11:29.917Z,20.50
2019-01-18T08:14:35.598Z,20.50
2019-01-18T08:17:41.952Z,20.50
2019-01-18T08:20:48.360Z,20.50
2019-01-18T08:23:54.089Z,20.50
2019-01-18T08:26:59.716Z,20.50
2019-01-18T08:30:07.623Z,20.50
2019-01-18T08:33:13.279Z,20.60
2019-01-18T08:36:19.035Z,20.60
2019-01-18T08:39:24.814Z,20.60
2019-01-18T08:42:30.467Z,20.60
2019-01-18T08:45:39.064Z,20.70
2019-01-18T08:48:44.741Z,20.70
2019-01-18T08:51:50.402Z,20.70
2019-01-18T08:54:56.134Z,20.70
2019-01-18T08:58:01.922Z,20.80
2019-01-18T09:01:07.559Z,20.80
2019-01-18T09:04:13.319Z,20.80
2019-01-18T09:07:18.943Z,20.90
2019-01-18T09:10:26.339Z,20.90
2019-01-18T09:13:32.012Z,20.90
2019-01-18T09:16:38.655Z,21.00
2019-01-18T09:19:44.342Z,21.00
2019-01-18T09:22:50.359Z,21.00
2019-01-18T09:25:56.059Z,21.10
2019-01-18T09:29:01.821Z,21.10
2019-01-18T09:32:07.481Z,21.10
2019-01-18T09:35:14.019Z,21.30
2019-01-18T09:38:19.690Z,21.40
2019-01-18T09:41:25.222Z,21.30
2019-01-18T09:44:30.890Z,21.30
2019-01-18T09:47:36.799Z,21.30
2019-01-18T09:50:44.214Z,21.20
2019-01-18T09:53:49.974Z,21.20
2019-01-18T09:56:55.649Z,21.20
2019-01-18T10:00:01.361Z,21.20
2019-01-18T10:03:07.135Z,21.20
2019-01-18T10:06:12.931Z,21.20
2019-01-18T10:09:18.574Z,21.20
2019-01-18T10:12:24.641Z,21.30
2019-01-18T10:15:32.723Z,21.40
2019-01-18T10:18:38.446Z,21.70
2019-01-18T10:21:44.039Z,22.00
2019-01-18T10:24:51.384Z,22.30
2019-01-18T10:27:57.102Z,22.60
2019-01-18T10:31:02.721Z,22.90
2019-01-18T10:34:08.486Z,23.10
2019-01-18T10:37:14.238Z,23.20
2019-01-18T10:40:20.122Z,23.30
2019-01-18T10:43:25.871Z,23.40
2019-01-18T10:46:31.635Z,23.40
2019-01-18T10:49:37.303Z,23.50
2019-01-18T10:52:43.218Z,23.50
2019-01-18T10:55:48.973Z,23.50
2019-01-18T10:58:54.646Z,23.50
2019-01-18T11:02:07.196Z,23.50
2019-01-18T11:05:10.027Z,23.50
2019-01-18T11:08:17.509Z,23.40
2019-01-18T11:11:23.097Z,23.40
2019-01-18T11:14:28.754Z,23.40
2019-01-18T11:17:34.378Z,23.40
2019-01-18T11:20:51.144Z,23.30
2019-01-18T11:23:57.898Z,23.40
2019-01-18T11:27:03.547Z,23.40
2019-01-18T11:30:12.484Z,23.10
2019-01-18T11:33:18.143Z,22.80
2019-01-18T11:36:24.786Z,22.60
2019-01-18T11:39:30.562Z,22.40
2019-01-18T11:42:36.319Z,22.30
2019-01-18T11:45:42.047Z,22.20
2019-01-18T11:48:50.407Z,22.20
2019-01-18T11:51:55.118Z,22.10
2019-01-18T11:55:00.742Z,22.10
2019-01-18T11:58:06.400Z,22.10
2019-01-18T12:01:12.050Z,22.10
2019-01-18T12:04:17.734Z,22.10
2019-01-18T12:07:23.486Z,22.00
2019-01-18T12:10:30.952Z,21.90
2019-01-18T12:13:36.635Z,21.80
2019-01-18T12:16:42.363Z,21.70
2019-01-18T12:19:48.332Z,21.70
2019-01-18T12:22:54.002Z,21.80
2019-01-18T12:25:59.662Z,21.90
2019-01-18T12:29:05.614Z,22.40
2019-01-18T12:32:11.307Z,22.90
2019-01-18T12:35:16.990Z,23.40
2019-01-18T12:38:22.713Z,23.80
2019-01-18T12:41:28.428Z,24.10
2019-01-18T12:44:34.101Z,24.40
2019-01-18T12:47:39.938Z,24.60
2019-01-18T12:50:45.762Z,24.80
2019-01-18T12:53:51.450Z,25.40
2019-01-18T12:56:57.175Z,25.80
2019-01-18T13:00:02.858Z,25.80
2019-01-18T13:03:10.370Z,25.70
2019-01-18T13:06:15.981Z,25.40
2019-01-18T13:09:21.707Z,25.20
2019-01-18T13:12:27.311Z,24.90
2019-01-18T13:15:36.491Z,24.50
2019-01-18T13:18:44.000Z,24.30
2019-01-18T13:21:50.018Z,24.00
2019-01-18T13:24:55.611Z,23.80
2019-01-18T13:28:01.345Z,23.70
2019-01-18T13:31:06.949Z,23.50
2019-01-18T13:34:12.838Z,23.50
2019-01-18T13:37:18.462Z,23.60
2019-01-18T13:40:24.438Z,23.60
2019-01-18T13:43:30.051Z,23.70
2019-01-18T13:46:35.842Z,23.80
2019-01-18T13:49:41.478Z,23.90
2019-01-18T13:52:48.721Z,23.90
2019-01-18T13:55:54.541Z,24.00
2019-01-18T13:59:00.276Z,24.00
2019-01-18T14:02:07.709Z,23.70
2019-01-18T14:05:13.709Z,23.30
2019-01-18T14:08:19.399Z,23.00
2019-01-18T14:11:25.265Z,23.00
2019-01-18T14:14:30.903Z,23.00
2019-01-18T14:17:36.562Z,23.20
2019-01-18T14:20:42.306Z,23.30
2019-01-18T14:23:47.959Z,23.50
2019-01-18T14:26:53.617Z,23.60
2019-01-18T14:29:59.346Z,23.80
2019-01-18T14:33:05.030Z,23.80
2019-01-18T14:36:14.551Z,23.60
2019-01-18T14:39:18.170Z,23.30
2019-01-18T14:42:25.538Z,23.10
2019-01-18T14:45:36.309Z,23.00
2019-01-18T14:48:42.070Z,22.90
2019-01-18T14:51:47.718Z,22.90
2019-01-18T14:54:53.507Z,22.80
2019-01-18T14:57:59.337Z,22.80
2019-01-18T15:01:04.987Z,22.80
2019-01-18T15:04:10.539Z,22.90
2019-01-18T15:07:16.423Z,22.90
2019-01-18T15:10:22.761Z,23.10
2019-01-18T15:13:29.341Z,22.90
2019-01-18T15:16:34.994Z,22.80
2019-01-18T15:19:40.669Z,22.70
2019-01-18T15:22:46.322Z,22.70
2019-01-18T15:25:51.976Z,22.70
2019-01-18T15:28:57.601Z,22.70
2019-01-18T15:32:03.258Z,22.60
2019-01-18T15:35:11.049Z,22.60
2019-01-18T15:38:17.657Z,22.60
2019-01-18T15:41:23.310Z,22.60
2019-01-18T15:44:28.933Z,22.60
2019-01-18T15:47:34.617Z,22.70
2019-01-18T15:50:40.576Z,22.70
2019-01-18T15:53:46.225Z,22.70
2019-01-18T15:56:51.989Z,22.70
2019-01-18T15:59:57.638Z,22.70
2019-01-18T16:03:03.362Z,22.70
2019-01-18T16:06:09.014Z,22.70
2019-01-18T16:09:14.696Z,22.70
2019-01-18T16:12:20.350Z,22.60
2019-01-18T16:15:29.353Z,22.70
2019-01-18T16:18:35.953Z,22.70
2019-01-18T16:21:41.614Z,22.70
2019-01-18T16:24:47.256Z,22.60
2019-01-18T16:27:52.924Z,22.60
2019-01-18T16:30:58.538Z,22.60
2019-01-18T16:34:04.328Z,22.60
2019-01-18T16:37:09.973Z,22.60
2019-01-18T16:40:27.578Z,22.60
2019-01-18T16:43:36.407Z,22.60
2019-01-18T16:46:42.094Z,22.60
2019-01-18T16:49:47.830Z,22.60
2019-01-18T16:52:53.598Z,22.60
2019-01-18T16:55:59.338Z,22.60
2019-01-18T16:59:05.107Z,22.60
2019-01-18T17:02:10.901Z,22.70
2019-01-18T17:05:16.486Z,22.60
2019-01-18T17:08:22.390Z,22.70
2019-01-18T17:11:28.031Z,22.60
2019-01-18T17:14:33.722Z,22.60
2019-01-18T17:17:40.453Z,22.60
2019-01-18T17:20:46.253Z,22.60
2019-01-18T17:23:51.971Z,22.70
2019-01-18T17:26:57.702Z,22.70
2019-01-18T17:30:03.473Z,22.70
2019-01-18T17:33:09.342Z,22.70
2019-01-18T17:36:43.966Z,22.70
2019-01-18T17:40:33.251Z,22.60
2019-01-18T17:44:17.766Z,22.60
2019-01-18T17:48:25.418Z,22.60
2019-01-18T17:52:20.739Z,22.60
2019-01-18T17:56:10.321Z,22.60
2019-01-18T17:59:51.815Z,22.50
2019-01-18T18:03:36.478Z,22.60
2019-01-18T18:07:20.530Z,22.50
2019-01-18T18:11:12.085Z,22.50
2019-01-18T18:14:28.657Z,22.40
2019-01-18T18:18:11.186Z,22.50
2019-01-18T18:21:53.803Z,22.40
2019-01-18T18:25:37.326Z,22.50
2019-01-18T18:29:18.124Z,22.40
2019-01-18T18:33:09.249Z,22.40
2019-01-18T18:37:03.022Z,22.40
2019-01-18T18:40:32.846Z,22.40
2019-01-18T18:44:15.057Z,22.40
2019-01-18T18:47:46.709Z,22.40
2019-01-18T18:51:33.842Z,22.40
2019-01-18T18:55:29.566Z,22.40
2019-01-18T18:59:06.455Z,22.40
2019-01-18T19:03:12.522Z,22.40
2019-01-18T19:07:16.878Z,22.40
2019-01-18T19:10:53.842Z,22.40
2019-01-18T19:14:52.541Z,22.40
2019-01-18T19:18:37.524Z,22.40
2019-01-18T19:22:26.654Z,22.40
2019-01-18T19:26:22.042Z,22.30
2019-01-18T19:30:10.086Z,22.30
2019-01-18T19:33:46.759Z,22.40
2019-01-18T19:37:29.077Z,22.30
2019-01-18T19:41:21.223Z,22.30
2019-01-18T19:45:20.017Z,22.30
2019-01-18T19:49:06.934Z,22.30
2019-01-18T19:53:03.665Z,22.30
2019-01-18T19:56:56.381Z,22.30
2019-01-18T20:00:49.997Z,22.30
2019-01-18T20:04:32.807Z,22.30
2019-01-18T20:07:58.374Z,22.30
2019-01-18T20:11:44.368Z,22.30
2019-01-18T20:15:19.470Z,22.30
2019-01-18T20:19:02.126Z,22.30
2019-01-18T20:22:48.947Z,22.30
2019-01-18T20:26:26.006Z,22.30
2019-01-18T20:30:08.454Z,22.30
2019-01-18T20:34:18.353Z,22.30
2019-01-18T20:37:47.514Z,22.30
2019-01-18T20:41:43.344Z,22.30
2019-01-18T20:45:31.025Z,22.20
2019-01-18T20:49:20.154Z,22.20
2019-01-18T20:52:55.105Z,22.20
2019-01-18T20:56:33.546Z,22.20
2019-01-18T20:59:59.750Z,22.10
2019-01-18T21:03:41.786Z,22.10
2019-01-18T21:07:31.041Z,22.00
2019-01-18T21:11:15.215Z,22.00
2019-01-18T21:14:35.150Z,22.00
2019-01-18T21:18:12.469Z,21.90
2019-01-18T21:21:56.615Z,21.90
2019-01-18T21:25:40.782Z,21.80
2019-01-18T21:29:15.002Z,21.80
2019-01-18T21:32:50.576Z,21.70
2019-01-18T21:36:43.514Z,21.70
2019-01-18T21:40:19.102Z,21.70
2019-01-18T21:44:21.048Z,21.60
2019-01-18T21:48:16.444Z,21.60
2019-01-18T21:51:47.246Z,21.50
2019-01-18T21:55:17.758Z,21.50
2019-01-18T21:58:43.777Z,21.50
2019-01-18T22:02:23.158Z,21.40
2019-01-18T22:06:05.324Z,21.40
2019-01-18T22:09:45.181Z,21.40
2019-01-18T22:13:30.562Z,21.30
2019-01-18T22:17:23.417Z,21.30
2019-01-18T22:21:16.326Z,21.30
2019-01-18T22:25:08.623Z,21.20
2019-01-18T22:28:45.621Z,21.20
2019-01-18T22:31:57.681Z,21.20
2019-01-18T22:35:29.597Z,21.10
2019-01-18T22:39:34.631Z,21.10
2019-01-18T22:43:02.550Z,21.10
2019-01-18T22:46:53.417Z,21.10
2019-01-18T22:50:36.856Z,21.10
2019-01-18T22:54:20.477Z,21.00
2019-01-18T22:58:00.569Z,21.00
2019-01-18T23:01:37.414Z,21.00
2019-01-18T23:05:09.112Z,21.00
2019-01-18T23:09:15.653Z,20.90
2019-01-18T23:12:45.818Z,20.90
2019-01-18T23:16:29.458Z,20.80
2019-01-18T23:20:25.476Z,20.80
2019-01-18T23:23:46.866Z,20.80
2019-01-18T23:27:25.136Z,20.80
2019-01-18T23:30:46.519Z,20.70
2019-01-18T23:34:32.058Z,20.70
2019-01-18T23:38:09.151Z,20.70
2019-01-18T23:41:59.284Z,20.70
2019-01-18T23:45:37.283Z,20.70
2019-01-18T23:49:10.477Z,20.70
2019-01-18T23:53:04.582Z,20.60
2019-01-18T23:56:43.615Z,20.60
